sensor_id;sensor_type;location;lat;lon;timestamp;P1;durP1;ratioP1;P2;durP2;ratioP2
29814;SDS011;16708;50.426;7.664;2023-07-20T00:01:32;6.80;;;2.20;;
29814;SDS011;16708;50.426;7.664;2023-07-20T00:06:27;7.00;;;2.50;;
29814;SDS011;16708;50.426;7.664;2023-07-20T00:11:21;6.70;;;2.60;;
29814;SDS011;16708;50.426;7.664;2023-07-20T00:16:16;8.40;;;2.50;;
29814;SDS011;16708;50.426;7.664;2023-07-20T00:21:10;8.40;;;2.40;;
29814;SDS011;16708;50.426;7.664;2023-07-20T00:26:05;6.80;;;2.70;;
29814;SDS011;16708;50.426;7.664;2023-07-20T00:30:59;6.40;;;2.40;;
29814;SDS011;16708;50.426;7.664;2023-07-20T00:35:53;5.80;;;2.10;;
29814;SDS011;16708;50.426;7.664;2023-07-20T00:40:47;6.40;;;2.80;;
29814;SDS011;16708;50.426;7.664;2023-07-20T00:45:41;6.00;;;2.80;;
29814;SDS011;16708;50.426;7.664;2023-07-20T00:50:35;5.20;;;2.30;;
29814;SDS011;16708;50.426;7.664;2023-07-20T00:55:24;5.10;;;2.30;;
29814;SDS011;16708;50.426;7.664;2023-07-20T01:00:18;6.30;;;2.50;;
29814;SDS011;16708;50.426;7.664;2023-07-20T01:05:13;6.90;;;2.60;;
29814;SDS011;16708;50.426;7.664;2023-07-20T01:10:07;6.30;;;2.30;;
29814;SDS011;16708;50.426;7.664;2023-07-20T01:14:59;4.10;;;2.40;;
29814;SDS011;16708;50.426;7.664;2023-07-20T01:19:54;7.80;;;2.40;;
29814;SDS011;16708;50.426;7.664;2023-07-20T01:34:35;5.80;;;2.60;;
29814;SDS011;16708;50.426;7.664;2023-07-20T01:39:29;9.70;;;3.30;;
29814;SDS011;16708;50.426;7.664;2023-07-20T01:44:24;7.00;;;3.30;;
29814;SDS011;16708;50.426;7.664;2023-07-20T01:49:18;6.80;;;3.30;;
29814;SDS011;16708;50.426;7.664;2023-07-20T01:54:12;8.30;;;2.90;;
29814;SDS011;16708;50.426;7.664;2023-07-20T01:59:07;8.90;;;2.90;;
29814;SDS011;16708;50.426;7.664;2023-07-20T02:04:01;9.00;;;3.10;;
29814;SDS011;16708;50.426;7.664;2023-07-20T02:08:56;7.40;;;3.00;;
29814;SDS011;16708;50.426;7.664;2023-07-20T02:13:50;6.60;;;3.10;;
29814;SDS011;16708;50.426;7.664;2023-07-20T02:18:44;8.20;;;3.70;;
29814;SDS011;16708;50.426;7.664;2023-07-20T02:23:38;8.50;;;3.10;;
29814;SDS011;16708;50.426;7.664;2023-07-20T02:28:32;8.80;;;3.30;;
29814;SDS011;16708;50.426;7.664;2023-07-20T02:33:26;8.70;;;3.40;;
29814;SDS011;16708;50.426;7.664;2023-07-20T02:38:21;6.20;;;3.20;;
29814;SDS011;16708;50.426;7.664;2023-07-20T02:43:14;5.10;;;2.90;;
29814;SDS011;16708;50.426;7.664;2023-07-20T02:48:06;7.60;;;3.10;;
29814;SDS011;16708;50.426;7.664;2023-07-20T02:53:00;6.00;;;3.40;;
29814;SDS011;16708;50.426;7.664;2023-07-20T02:57:54;7.30;;;3.20;;
29814;SDS011;16708;50.426;7.664;2023-07-20T03:02:49;6.30;;;3.00;;
29814;SDS011;16708;50.426;7.664;2023-07-20T03:07:43;4.30;;;2.80;;
29814;SDS011;16708;50.426;7.664;2023-07-20T03:12:37;7.00;;;3.10;;
29814;SDS011;16708;50.426;7.664;2023-07-20T03:17:31;6.30;;;3.00;;
29814;SDS011;16708;50.426;7.664;2023-07-20T03:22:26;6.30;;;3.20;;
29814;SDS011;16708;50.426;7.664;2023-07-20T03:27:19;6.10;;;3.50;;
29814;SDS011;16708;50.426;7.664;2023-07-20T03:32:14;5.50;;;3.10;;
29814;SDS011;16708;50.426;7.664;2023-07-20T03:37:06;6.10;;;3.10;;
29814;SDS011;16708;50.426;7.664;2023-07-20T03:42:00;6.90;;;3.00;;
29814;SDS011;16708;50.426;7.664;2023-07-20T03:46:54;6.20;;;3.10;;
29814;SDS011;16708;50.426;7.664;2023-07-20T03:51:48;4.90;;;3.00;;
29814;SDS011;16708;50.426;7.664;2023-07-20T03:56:42;8.10;;;2.60;;
29814;SDS011;16708;50.426;7.664;2023-07-20T04:01:37;5.40;;;2.80;;
29814;SDS011;16708;50.426;7.664;2023-07-20T04:06:31;5.30;;;3.10;;
29814;SDS011;16708;50.426;7.664;2023-07-20T04:11:26;5.90;;;3.20;;
29814;SDS011;16708;50.426;7.664;2023-07-20T04:16:20;5.30;;;2.90;;
29814;SDS011;16708;50.426;7.664;2023-07-20T04:21:14;6.80;;;3.20;;
29814;SDS011;16708;50.426;7.664;2023-07-20T04:26:08;4.00;;;2.90;;
29814;SDS011;16708;50.426;7.664;2023-07-20T04:31:01;5.90;;;2.60;;
29814;SDS011;16708;50.426;7.664;2023-07-20T04:35:56;4.50;;;2.80;;
29814;SDS011;16708;50.426;7.664;2023-07-20T04:40:50;6.40;;;3.20;;
29814;SDS011;16708;50.426;7.664;2023-07-20T04:45:44;4.60;;;2.90;;
29814;SDS011;16708;50.426;7.664;2023-07-20T04:50:38;4.30;;;2.80;;
29814;SDS011;16708;50.426;7.664;2023-07-20T04:55:32;6.30;;;2.90;;
29814;SDS011;16708;50.426;7.664;2023-07-20T05:00:27;4.60;;;2.60;;
29814;SDS011;16708;50.426;7.664;2023-07-20T05:05:21;6.00;;;2.80;;
29814;SDS011;16708;50.426;7.664;2023-07-20T05:10:16;6.00;;;2.60;;
29814;SDS011;16708;50.426;7.664;2023-07-20T05:15:10;6.70;;;2.60;;
29814;SDS011;16708;50.426;7.664;2023-07-20T05:20:04;5.70;;;2.50;;
29814;SDS011;16708;50.426;7.664;2023-07-20T05:24:58;8.90;;;4.50;;
29814;SDS011;16708;50.426;7.664;2023-07-20T05:29:53;7.60;;;2.90;;
29814;SDS011;16708;50.426;7.664;2023-07-20T05:34:47;5.70;;;2.60;;
29814;SDS011;16708;50.426;7.664;2023-07-20T05:39:41;6.30;;;2.60;;
29814;SDS011;16708;50.426;7.664;2023-07-20T05:44:35;15.40;;;2.80;;
29814;SDS011;16708;50.426;7.664;2023-07-20T05:49:29;6.40;;;2.70;;
29814;SDS011;16708;50.426;7.664;2023-07-20T05:54:24;6.80;;;2.50;;
29814;SDS011;16708;50.426;7.664;2023-07-20T05:59:18;5.30;;;2.20;;
29814;SDS011;16708;50.426;7.664;2023-07-20T06:04:13;8.00;;;2.50;;
29814;SDS011;16708;50.426;7.664;2023-07-20T06:09:07;6.50;;;2.70;;
29814;SDS011;16708;50.426;7.664;2023-07-20T06:14:02;6.90;;;2.50;;
29814;SDS011;16708;50.426;7.664;2023-07-20T06:18:56;7.70;;;3.00;;
29814;SDS011;16708;50.426;7.664;2023-07-20T06:23:51;7.40;;;2.90;;
29814;SDS011;16708;50.426;7.664;2023-07-20T06:28:45;7.80;;;2.90;;
29814;SDS011;16708;50.426;7.664;2023-07-20T06:33:38;10.50;;;3.50;;
29814;SDS011;16708;50.426;7.664;2023-07-20T06:38:33;8.80;;;3.50;;
29814;SDS011;16708;50.426;7.664;2023-07-20T06:43:27;8.30;;;3.70;;
29814;SDS011;16708;50.426;7.664;2023-07-20T06:48:22;8.70;;;3.40;;
29814;SDS011;16708;50.426;7.664;2023-07-20T06:53:16;11.10;;;3.50;;
29814;SDS011;16708;50.426;7.664;2023-07-20T06:58:10;6.50;;;3.20;;
29814;SDS011;16708;50.426;7.664;2023-07-20T07:03:05;9.30;;;3.00;;
29814;SDS011;16708;50.426;7.664;2023-07-20T07:07:59;8.80;;;2.80;;
29814;SDS011;16708;50.426;7.664;2023-07-20T07:12:54;9.00;;;3.60;;
29814;SDS011;16708;50.426;7.664;2023-07-20T07:17:48;13.50;;;4.70;;
29814;SDS011;16708;50.426;7.664;2023-07-20T07:22:42;13.60;;;3.60;;
29814;SDS011;16708;50.426;7.664;2023-07-20T07:27:37;7.90;;;3.40;;
29814;SDS011;16708;50.426;7.664;2023-07-20T07:32:31;7.80;;;3.50;;
29814;SDS011;16708;50.426;7.664;2023-07-20T07:37:26;9.40;;;3.30;;
29814;SDS011;16708;50.426;7.664;2023-07-20T07:42:20;5.80;;;2.90;;
29814;SDS011;16708;50.426;7.664;2023-07-20T07:47:15;9.70;;;3.10;;
29814;SDS011;16708;50.426;7.664;2023-07-20T07:52:09;11.00;;;2.60;;
29814;SDS011;16708;50.426;7.664;2023-07-20T07:57:03;6.00;;;1.90;;
29814;SDS011;16708;50.426;7.664;2023-07-20T08:01:58;4.10;;;1.70;;
29814;SDS011;16708;50.426;7.664;2023-07-20T08:06:52;4.80;;;1.90;;
29814;SDS011;16708;50.426;7.664;2023-07-20T08:11:46;2.80;;;1.30;;
29814;SDS011;16708;50.426;7.664;2023-07-20T08:16:40;5.00;;;1.70;;
29814;SDS011;16708;50.426;7.664;2023-07-20T08:21:35;5.90;;;1.30;;
29814;SDS011;16708;50.426;7.664;2023-07-20T08:26:29;6.60;;;1.50;;
29814;SDS011;16708;50.426;7.664;2023-07-20T08:31:24;3.50;;;1.30;;
29814;SDS011;16708;50.426;7.664;2023-07-20T08:36:17;3.10;;;1.70;;
29814;SDS011;16708;50.426;7.664;2023-07-20T08:41:09;3.80;;;1.50;;
29814;SDS011;16708;50.426;7.664;2023-07-20T08:46:04;2.80;;;1.40;;
29814;SDS011;16708;50.426;7.664;2023-07-20T08:50:59;7.70;;;1.70;;
29814;SDS011;16708;50.426;7.664;2023-07-20T08:55:54;3.80;;;1.80;;
29814;SDS011;16708;50.426;7.664;2023-07-20T09:00:49;3.20;;;1.40;;
29814;SDS011;16708;50.426;7.664;2023-07-20T09:05:43;6.50;;;1.60;;
29814;SDS011;16708;50.426;7.664;2023-07-20T09:10:37;3.60;;;1.40;;
29814;SDS011;16708;50.426;7.664;2023-07-20T09:15:32;2.30;;;1.40;;
29814;SDS011;16708;50.426;7.664;2023-07-20T09:20:26;16.50;;;2.20;;
29814;SDS011;16708;50.426;7.664;2023-07-20T09:25:20;11.20;;;2.20;;
29814;SDS011;16708;50.426;7.664;2023-07-20T09:30:15;7.30;;;1.50;;
29814;SDS011;16708;50.426;7.664;2023-07-20T09:35:09;2.70;;;1.50;;
29814;SDS011;16708;50.426;7.664;2023-07-20T09:40:03;4.10;;;1.40;;
29814;SDS011;16708;50.426;7.664;2023-07-20T09:44:57;6.00;;;1.50;;
29814;SDS011;16708;50.426;7.664;2023-07-20T09:49:52;2.60;;;1.40;;
29814;SDS011;16708;50.426;7.664;2023-07-20T09:54:47;31.50;;;3.60;;
29814;SDS011;16708;50.426;7.664;2023-07-20T09:59:41;2.80;;;1.50;;
29814;SDS011;16708;50.426;7.664;2023-07-20T10:04:37;2.40;;;1.20;;
29814;SDS011;16708;50.426;7.664;2023-07-20T10:09:32;5.10;;;1.70;;
29814;SDS011;16708;50.426;7.664;2023-07-20T10:14:28;2.80;;;1.40;;
29814;SDS011;16708;50.426;7.664;2023-07-20T10:19:24;2.30;;;1.20;;
29814;SDS011;16708;50.426;7.664;2023-07-20T10:24:19;2.70;;;1.50;;
29814;SDS011;16708;50.426;7.664;2023-07-20T10:29:13;2.20;;;1.20;;
29814;SDS011;16708;50.426;7.664;2023-07-20T10:34:08;3.20;;;1.30;;
29814;SDS011;16708;50.426;7.664;2023-07-20T10:43:59;5.60;;;1.50;;
29814;SDS011;16708;50.426;7.664;2023-07-20T10:48:53;3.00;;;1.30;;
29814;SDS011;16708;50.426;7.664;2023-07-20T11:03:37;2.30;;;1.40;;
29814;SDS011;16708;50.426;7.664;2023-07-20T11:13:26;2.80;;;1.20;;
29814;SDS011;16708;50.426;7.664;2023-07-20T11:18:21;2.50;;;1.30;;
29814;SDS011;16708;50.426;7.664;2023-07-20T11:23:15;3.30;;;1.40;;
29814;SDS011;16708;50.426;7.664;2023-07-20T11:28:08;4.80;;;1.70;;
29814;SDS011;16708;50.426;7.664;2023-07-20T11:33:02;1.30;;;1.20;;
29814;SDS011;16708;50.426;7.664;2023-07-20T11:37:57;2.50;;;1.30;;
29814;SDS011;16708;50.426;7.664;2023-07-20T11:42:52;2.50;;;1.30;;
29814;SDS011;16708;50.426;7.664;2023-07-20T11:47:45;2.10;;;1.30;;
29814;SDS011;16708;50.426;7.664;2023-07-20T11:52:38;2.10;;;1.20;;
29814;SDS011;16708;50.426;7.664;2023-07-20T11:57:29;6.30;;;1.60;;
29814;SDS011;16708;50.426;7.664;2023-07-20T12:02:23;2.40;;;1.40;;
29814;SDS011;16708;50.426;7.664;2023-07-20T12:17:05;3.70;;;1.50;;
29814;SDS011;16708;50.426;7.664;2023-07-20T12:22:01;2.40;;;1.40;;
29814;SDS011;16708;50.426;7.664;2023-07-20T12:26:56;2.50;;;1.30;;
29814;SDS011;16708;50.426;7.664;2023-07-20T12:31:50;2.00;;;1.10;;
29814;SDS011;16708;50.426;7.664;2023-07-20T12:36:44;2.90;;;1.30;;
29814;SDS011;16708;50.426;7.664;2023-07-20T12:41:38;2.40;;;1.30;;
29814;SDS011;16708;50.426;7.664;2023-07-20T12:46:34;4.20;;;1.50;;
29814;SDS011;16708;50.426;7.664;2023-07-20T12:51:30;5.70;;;1.40;;
29814;SDS011;16708;50.426;7.664;2023-07-20T12:56:23;7.20;;;1.50;;
29814;SDS011;16708;50.426;7.664;2023-07-20T13:01:17;7.50;;;1.50;;
29814;SDS011;16708;50.426;7.664;2023-07-20T13:06:10;3.90;;;1.40;;
29814;SDS011;16708;50.426;7.664;2023-07-20T13:11:03;5.60;;;1.50;;
29814;SDS011;16708;50.426;7.664;2023-07-20T13:15:57;5.10;;;1.80;;
29814;SDS011;16708;50.426;7.664;2023-07-20T13:20:51;2.30;;;1.40;;
29814;SDS011;16708;50.426;7.664;2023-07-20T13:25:45;4.40;;;1.30;;
29814;SDS011;16708;50.426;7.664;2023-07-20T13:30:37;2.40;;;1.10;;
29814;SDS011;16708;50.426;7.664;2023-07-20T13:35:31;2.50;;;1.20;;
29814;SDS011;16708;50.426;7.664;2023-07-20T13:40:25;5.00;;;1.50;;
29814;SDS011;16708;50.426;7.664;2023-07-20T13:45:10;3.10;;;1.20;;
29814;SDS011;16708;50.426;7.664;2023-07-20T13:50:04;2.30;;;1.20;;
29814;SDS011;16708;50.426;7.664;2023-07-20T13:54:58;3.50;;;1.40;;
29814;SDS011;16708;50.426;7.664;2023-07-20T13:59:53;3.30;;;1.20;;
29814;SDS011;16708;50.426;7.664;2023-07-20T14:04:48;3.40;;;1.30;;
29814;SDS011;16708;50.426;7.664;2023-07-20T14:09:43;3.50;;;1.50;;
29814;SDS011;16708;50.426;7.664;2023-07-20T14:14:39;2.00;;;1.20;;
29814;SDS011;16708;50.426;7.664;2023-07-20T14:19:34;3.60;;;1.40;;
29814;SDS011;16708;50.426;7.664;2023-07-20T14:24:26;3.10;;;1.20;;
29814;SDS011;16708;50.426;7.664;2023-07-20T14:29:20;1.60;;;1.40;;
29814;SDS011;16708;50.426;7.664;2023-07-20T14:34:14;3.10;;;1.30;;
29814;SDS011;16708;50.426;7.664;2023-07-20T14:39:09;2.00;;;1.20;;
29814;SDS011;16708;50.426;7.664;2023-07-20T14:48:57;1.80;;;1.20;;
29814;SDS011;16708;50.426;7.664;2023-07-20T14:53:53;2.40;;;1.40;;
29814;SDS011;16708;50.426;7.664;2023-07-20T14:58:48;1.30;;;1.20;;
29814;SDS011;16708;50.426;7.664;2023-07-20T15:03:42;1.80;;;1.30;;
29814;SDS011;16708;50.426;7.664;2023-07-20T15:08:36;2.10;;;1.40;;
29814;SDS011;16708;50.426;7.664;2023-07-20T15:13:29;1.60;;;1.10;;
29814;SDS011;16708;50.426;7.664;2023-07-20T15:18:22;2.20;;;1.10;;
29814;SDS011;16708;50.426;7.664;2023-07-20T15:23:15;3.60;;;1.20;;
29814;SDS011;16708;50.426;7.664;2023-07-20T15:28:08;2.00;;;1.10;;
29814;SDS011;16708;50.426;7.664;2023-07-20T15:33:02;3.70;;;1.40;;
29814;SDS011;16708;50.426;7.664;2023-07-20T15:37:54;1.80;;;1.20;;
29814;SDS011;16708;50.426;7.664;2023-07-20T15:42:47;3.00;;;1.10;;
29814;SDS011;16708;50.426;7.664;2023-07-20T15:47:40;2.40;;;1.20;;
29814;SDS011;16708;50.426;7.664;2023-07-20T15:52:35;2.00;;;1.10;;
29814;SDS011;16708;50.426;7.664;2023-07-20T15:57:28;2.60;;;1.30;;
29814;SDS011;16708;50.426;7.664;2023-07-20T16:02:23;2.40;;;1.50;;
29814;SDS011;16708;50.426;7.664;2023-07-20T16:07:17;1.30;;;1.10;;
29814;SDS011;16708;50.426;7.664;2023-07-20T16:12:11;2.80;;;1.40;;
29814;SDS011;16708;50.426;7.664;2023-07-20T16:17:06;2.90;;;1.60;;
29814;SDS011;16708;50.426;7.664;2023-07-20T16:22:01;3.70;;;1.40;;
29814;SDS011;16708;50.426;7.664;2023-07-20T16:26:55;4.10;;;1.50;;
29814;SDS011;16708;50.426;7.664;2023-07-20T16:31:49;2.00;;;1.40;;
29814;SDS011;16708;50.426;7.664;2023-07-20T16:36:43;1.60;;;1.30;;
29814;SDS011;16708;50.426;7.664;2023-07-20T16:41:38;3.50;;;1.30;;
29814;SDS011;16708;50.426;7.664;2023-07-20T16:46:32;3.70;;;1.30;;
29814;SDS011;16708;50.426;7.664;2023-07-20T16:51:27;4.10;;;1.70;;
29814;SDS011;16708;50.426;7.664;2023-07-20T16:56:22;4.90;;;1.70;;
29814;SDS011;16708;50.426;7.664;2023-07-20T17:01:16;3.10;;;1.80;;
29814;SDS011;16708;50.426;7.664;2023-07-20T17:06:10;3.00;;;1.50;;
29814;SDS011;16708;50.426;7.664;2023-07-20T17:11:04;2.10;;;1.30;;
29814;SDS011;16708;50.426;7.664;2023-07-20T17:15:58;3.40;;;1.40;;
29814;SDS011;16708;50.426;7.664;2023-07-20T17:20:52;2.90;;;1.40;;
29814;SDS011;16708;50.426;7.664;2023-07-20T17:25:46;2.70;;;1.40;;
29814;SDS011;16708;50.426;7.664;2023-07-20T17:30:41;3.00;;;1.50;;
29814;SDS011;16708;50.426;7.664;2023-07-20T17:35:34;3.00;;;1.20;;
29814;SDS011;16708;50.426;7.664;2023-07-20T17:40:28;2.90;;;1.60;;
29814;SDS011;16708;50.426;7.664;2023-07-20T17:45:23;1.90;;;1.40;;
29814;SDS011;16708;50.426;7.664;2023-07-20T17:50:17;5.60;;;2.00;;
29814;SDS011;16708;50.426;7.664;2023-07-20T17:55:11;3.20;;;1.50;;
29814;SDS011;16708;50.426;7.664;2023-07-20T18:00:06;2.90;;;1.40;;
29814;SDS011;16708;50.426;7.664;2023-07-20T18:05:00;2.50;;;1.40;;
29814;SDS011;16708;50.426;7.664;2023-07-20T18:09:55;2.70;;;1.30;;
29814;SDS011;16708;50.426;7.664;2023-07-20T18:14:49;3.30;;;1.40;;
29814;SDS011;16708;50.426;7.664;2023-07-20T18:19:42;2.00;;;1.40;;
29814;SDS011;16708;50.426;7.664;2023-07-20T18:24:37;3.70;;;1.60;;
29814;SDS011;16708;50.426;7.664;2023-07-20T18:29:31;4.70;;;1.50;;
29814;SDS011;16708;50.426;7.664;2023-07-20T18:34:24;2.70;;;1.60;;
29814;SDS011;16708;50.426;7.664;2023-07-20T18:39:18;2.50;;;1.20;;
29814;SDS011;16708;50.426;7.664;2023-07-20T18:44:12;2.00;;;1.30;;
29814;SDS011;16708;50.426;7.664;2023-07-20T18:49:06;2.80;;;1.30;;
29814;SDS011;16708;50.426;7.664;2023-07-20T18:54:01;6.50;;;1.60;;
29814;SDS011;16708;50.426;7.664;2023-07-20T18:58:55;2.20;;;1.40;;
29814;SDS011;16708;50.426;7.664;2023-07-20T19:03:49;2.20;;;1.50;;
29814;SDS011;16708;50.426;7.664;2023-07-20T19:08:43;2.30;;;1.30;;
29814;SDS011;16708;50.426;7.664;2023-07-20T19:13:37;3.70;;;1.60;;
29814;SDS011;16708;50.426;7.664;2023-07-20T19:18:31;1.80;;;1.40;;
29814;SDS011;16708;50.426;7.664;2023-07-20T19:23:26;2.30;;;1.40;;
29814;SDS011;16708;50.426;7.664;2023-07-20T19:28:20;3.40;;;1.30;;
29814;SDS011;16708;50.426;7.664;2023-07-20T19:33:14;4.10;;;1.50;;
29814;SDS011;16708;50.426;7.664;2023-07-20T19:38:09;2.90;;;1.40;;
29814;SDS011;16708;50.426;7.664;2023-07-20T19:43:03;2.20;;;1.40;;
29814;SDS011;16708;50.426;7.664;2023-07-20T19:47:57;3.00;;;1.30;;
29814;SDS011;16708;50.426;7.664;2023-07-20T19:52:55;1.40;;;1.20;;
29814;SDS011;16708;50.426;7.664;2023-07-20T19:57:46;3.30;;;1.40;;
29814;SDS011;16708;50.426;7.664;2023-07-20T20:02:40;3.40;;;1.30;;
29814;SDS011;16708;50.426;7.664;2023-07-20T20:07:35;3.80;;;1.40;;
29814;SDS011;16708;50.426;7.664;2023-07-20T20:12:29;2.40;;;1.50;;
29814;SDS011;16708;50.426;7.664;2023-07-20T20:17:23;2.60;;;1.30;;
29814;SDS011;16708;50.426;7.664;2023-07-20T20:22:15;2.10;;;1.30;;
29814;SDS011;16708;50.426;7.664;2023-07-20T20:27:09;3.40;;;1.20;;
29814;SDS011;16708;50.426;7.664;2023-07-20T20:32:04;1.80;;;1.20;;
29814;SDS011;16708;50.426;7.664;2023-07-20T20:36:58;3.90;;;1.60;;
29814;SDS011;16708;50.426;7.664;2023-07-20T20:41:52;3.00;;;1.70;;
29814;SDS011;16708;50.426;7.664;2023-07-20T20:46:46;3.40;;;1.50;;
29814;SDS011;16708;50.426;7.664;2023-07-20T20:51:40;3.90;;;1.60;;
29814;SDS011;16708;50.426;7.664;2023-07-20T20:56:34;3.30;;;1.60;;
29814;SDS011;16708;50.426;7.664;2023-07-20T21:01:29;2.80;;;1.60;;
29814;SDS011;16708;50.426;7.664;2023-07-20T21:06:23;2.70;;;1.50;;
29814;SDS011;16708;50.426;7.664;2023-07-20T21:11:16;2.30;;;1.70;;
29814;SDS011;16708;50.426;7.664;2023-07-20T21:16:11;2.80;;;1.50;;
29814;SDS011;16708;50.426;7.664;2023-07-20T21:21:05;2.00;;;1.60;;
29814;SDS011;16708;50.426;7.664;2023-07-20T21:26:00;3.30;;;1.60;;
29814;SDS011;16708;50.426;7.664;2023-07-20T21:30:54;4.40;;;1.80;;
29814;SDS011;16708;50.426;7.664;2023-07-20T21:35:48;2.50;;;1.50;;
29814;SDS011;16708;50.426;7.664;2023-07-20T21:40:42;2.50;;;1.50;;
29814;SDS011;16708;50.426;7.664;2023-07-20T21:45:37;2.80;;;1.70;;
29814;SDS011;16708;50.426;7.664;2023-07-20T21:50:31;2.10;;;1.40;;
29814;SDS011;16708;50.426;7.664;2023-07-20T21:55:25;2.50;;;1.60;;
29814;SDS011;16708;50.426;7.664;2023-07-20T22:00:20;2.10;;;1.50;;
29814;SDS011;16708;50.426;7.664;2023-07-20T22:05:14;5.00;;;2.00;;
29814;SDS011;16708;50.426;7.664;2023-07-20T22:10:07;3.80;;;1.70;;
29814;SDS011;16708;50.426;7.664;2023-07-20T22:15:01;4.90;;;1.70;;
29814;SDS011;16708;50.426;7.664;2023-07-20T22:19:55;2.60;;;1.50;;
29814;SDS011;16708;50.426;7.664;2023-07-20T22:24:49;4.40;;;1.70;;
29814;SDS011;16708;50.426;7.664;2023-07-20T22:29:43;4.10;;;1.80;;
29814;SDS011;16708;50.426;7.664;2023-07-20T22:34:38;2.60;;;1.70;;
29814;SDS011;16708;50.426;7.664;2023-07-20T22:39:31;3.70;;;1.60;;
29814;SDS011;16708;50.426;7.664;2023-07-20T22:44:25;3.50;;;1.70;;
29814;SDS011;16708;50.426;7.664;2023-07-20T22:49:20;3.40;;;1.60;;
29814;SDS011;16708;50.426;7.664;2023-07-20T22:54:14;2.70;;;1.70;;
29814;SDS011;16708;50.426;7.664;2023-07-20T22:59:08;1.70;;;1.50;;
29814;SDS011;16708;50.426;7.664;2023-07-20T23:04:02;2.50;;;1.60;;
29814;SDS011;16708;50.426;7.664;2023-07-20T23:08:56;2.80;;;1.70;;
29814;SDS011;16708;50.426;7.664;2023-07-20T23:13:50;2.90;;;1.70;;
29814;SDS011;16708;50.426;7.664;2023-07-20T23:18:44;3.50;;;1.90;;
29814;SDS011;16708;50.426;7.664;2023-07-20T23:23:40;2.50;;;1.90;;
29814;SDS011;16708;50.426;7.664;2023-07-20T23:28:33;3.80;;;1.80;;
29814;SDS011;16708;50.426;7.664;2023-07-20T23:33:27;3.60;;;2.00;;
29814;SDS011;16708;50.426;7.664;2023-07-20T23:38:21;3.40;;;2.00;;
29814;SDS011;16708;50.426;7.664;2023-07-20T23:43:16;5.20;;;2.00;;
29814;SDS011;16708;50.426;7.664;2023-07-20T23:48:10;2.30;;;2.00;;
29814;SDS011;16708;50.426;7.664;2023-07-20T23:53:04;5.60;;;1.80;;
29814;SDS011;16708;50.426;7.664;2023-07-20T23:57:59;3.00;;;1.80;;
